Time;durP1;ratioP1;P1;durP2;ratioP2;P2;SDS_P1;SDS_P2;PMS_P1;PMS_P2;Temp;Humidity;BMP_temperature;BMP_pressure;BME280_temperature;BME280_humidity;BME280_pressure;Samples;Min_cycle;Max_cycle;Signal;HPM_P1;HPM_P2
2022/03/01 00:01:53;;;;;;;;;;;;;;;-1.32;91.93;99953.42;1630486;87;26315;-85
2022/03/01 00:04:19;;;;;;;;;;;;;;;-1.39;92.12;99949.98;1629997;87;22052;-86
2022/03/01 00:06:45;;;;;;;;;;;;;;;-1.47;92.26;99950.38;1637903;85;25956;-85
2022/03/01 00:09:12;;;;;;;;;;;;;;;-1.53;92.44;99950.39;1627238;86;24484;-86
2022/03/01 00:11:38;;;;;;;;;;;;;;;-1.58;92.64;99953.34;1626854;87;20310;-86
2022/03/01 00:14:05;;;;;;;;;;;;;;;-1.59;92.89;99955.50;1634726;87;24966;-86
2022/03/01 00:16:32;;;;;;;;;;;;;;;-1.55;93.17;99956.36;1633982;87;21906;-86
2022/03/01 00:18:58;;;;;;;;;;;;;;;-1.50;93.52;99958.51;1627412;87;26065;-85
2022/03/01 00:21:24;;;;;;;;;;;;;;;-1.47;93.86;99950.38;1630653;86;24501;-85
2022/03/01 00:23:51;;;;;;;;;;;;;;;-1.44;94.16;99946.97;1637858;85;20623;-86
2022/03/01 00:26:17;;;;;;;;;;;;;;;-1.45;94.42;99950.39;1643615;87;24813;-86
2022/03/01 00:28:43;;;;;;;;;;;;;;;-1.46;94.65;99944.81;1643023;87;22059;-86
2022/03/01 00:31:10;;;;;;;;;;;;;;;-1.50;94.83;99951.66;1643699;85;26662;-85
2022/03/01 00:33:36;;;;;;;;;;;;;;;-1.55;94.97;99951.22;1647749;87;24498;-85
2022/03/01 00:36:03;;;;;;;;;;;;;;;-1.61;95.09;99948.63;1629388;87;20526;-85
2022/03/01 00:38:29;;;;;;;;;;;;;;;-1.67;95.24;99944.76;1627811;87;24794;-85
2022/03/01 00:40:56;;;;;;;;;;;;;;;-1.72;95.35;99946.03;1632132;87;22039;-85
2022/03/01 00:43:22;;;;;;;;;;;;;;;-1.76;95.50;99941.75;1634978;86;26074;-85
2022/03/01 00:45:49;;;;;;;;;;;;;;;-1.77;95.71;99943.88;1634152;87;24395;-85
2022/03/01 00:48:15;;;;;;;;;;;;;;;-1.75;95.98;99942.19;1631715;87;20522;-85
2022/03/01 00:50:41;;;;;;;;;;;;;;;-1.67;96.27;99947.33;1629961;87;24728;-85
2022/03/01 00:53:07;;;;;;;;;;;;;;;-1.66;96.56;99943.48;1628547;87;21986;-85
2022/03/01 00:55:33;;;;;;;;;;;;;;;-1.67;96.81;99939.20;1631612;87;26652;-85
2022/03/01 00:57:59;;;;;;;;;;;;;;;-1.65;97.04;99951.62;1628733;86;24759;-85
2022/03/01 01:00:25;;;;;;;;;;;;;;;-1.71;97.21;99947.75;1633125;87;20253;-85
2022/03/01 01:02:52;;;;;;;;;;;;;;;-1.78;97.33;99941.73;1620927;87;24638;-85
2022/03/01 01:05:18;;;;;;;;;;;;;;;-1.86;97.40;99940.86;1630139;85;21911;-85
2022/03/01 01:07:44;;;;;;;;;;;;;;;-1.94;97.48;99939.09;1635958;87;26271;-84
2022/03/01 01:10:10;;;;;;;;;;;;;;;-1.99;97.57;99941.65;1624687;87;24663;-85
2022/03/01 01:12:36;;;;;;;;;;;;;;;-1.99;97.75;99941.65;1627733;87;20306;-85
2022/03/01 01:15:03;;;;;;;;;;;;;;;-2.00;97.93;99944.20;1630953;87;20743;-85
2022/03/01 01:17:29;;;;;;;;;;;;;;;-2.03;98.11;99937.36;1637152;87;21956;-85
2022/03/01 01:19:55;;;;;;;;;;;;;;;-2.00;98.31;99937.78;1634549;87;25873;-85
2022/03/01 01:22:39;;;;;;;;;;;;;;;-1.98;98.56;99939.95;1627299;87;24431;-85
2022/03/01 01:25:06;;;;;;;;;;;;;;;-1.96;98.79;99937.80;1629643;87;20314;-85
2022/03/01 01:27:32;;;;;;;;;;;;;;;-1.92;99.09;99936.12;1629186;85;24838;-84
2022/03/01 01:29:59;;;;;;;;;;;;;;;-1.84;99.42;99940.84;1632581;86;21937;-85
2022/03/01 01:32:25;;;;;;;;;;;;;;;-1.80;99.67;99939.58;1628463;85;26037;-85
2022/03/01 01:34:52;;;;;;;;;;;;;;;-1.74;99.98;99940.88;1638961;87;24485;-84
2022/03/01 01:37:18;;;;;;;;;;;;;;;-1.70;100.00;99945.63;1634023;87;20343;-84
2022/03/01 01:39:45;;;;;;;;;;;;;;;-1.62;100.00;99950.34;1628563;87;24831;-85
2022/03/01 01:42:11;;;;;;;;;;;;;;;-1.46;100.00;99949.95;1623836;87;22157;-85
2022/03/01 01:44:37;;;;;;;;;;;;;;;-1.38;100.00;99946.57;1618795;87;26166;-85
2022/03/01 01:47:03;;;;;;;;;;;;;;;-1.43;100.00;99943.56;1614128;88;24289;-85
2022/03/01 01:49:29;;;;;;;;;;;;;;;-1.54;100.00;99941.39;1631929;87;20258;-85
2022/03/01 01:51:55;;;;;;;;;;;;;;;-1.63;100.00;99940.92;1634626;86;24716;-85
2022/03/01 01:54:21;;;;;;;;;;;;;;;-1.72;100.00;99937.05;1630825;85;20230;-85
2022/03/01 01:56:47;;;;;;;;;;;;;;;-1.73;100.00;99944.31;1628504;87;26020;-84
2022/03/01 01:59:14;;;;;;;;;;;;;;;-1.67;100.00;99939.63;1624237;87;20375;-84
2022/03/01 02:01:41;;;;;;;;;;;;;;;-1.51;100.00;99944.81;1642840;87;20823;-84
2022/03/01 02:04:07;;;;;;;;;;;;;;;-1.30;100.00;99942.71;1632981;87;24808;-85
2022/03/01 02:06:34;;;;;;;;;;;;;;;-1.21;100.00;99940.18;1628868;86;21907;-85
2022/03/01 02:09:00;;;;;;;;;;;;;;;-1.17;100.00;99940.61;1629540;87;26052;-85
2022/03/01 02:11:27;;;;;;;;;;;;;;;-1.20;100.00;99939.75;1633381;87;20821;-84
2022/03/01 02:13:53;;;;;;;;;;;;;;;-1.20;100.00;99939.75;1629181;87;20223;-84
2022/03/01 02:16:19;;;;;;;;;;;;;;;-1.25;100.00;99936.33;1623928;85;24848;-84
2022/03/01 02:18:45;;;;;;;;;;;;;;;-1.35;100.00;99936.29;1635343;85;21939;-85
2022/03/01 02:21:11;;;;;;;;;;;;;;;-1.24;100.00;99936.73;1635905;86;26041;-85
2022/03/01 02:23:37;;;;;;;;;;;;;;;-1.09;100.00;99933.75;1621725;87;24428;-85
2022/03/01 02:26:03;;;;;;;;;;;;;;;-1.00;100.00;99936.34;1634336;87;20289;-85
2022/03/01 02:28:30;;;;;;;;;;;;;;;-0.95;100.00;99937.63;1635681;86;24764;-85
2022/03/01 02:30:56;;;;;;;;;;;;;;;-0.96;100.00;99939.76;1625529;87;21951;-85
2022/03/01 02:33:22;;;;;;;;;;;;;;;-0.95;100.00;99936.34;1629778;87;26070;-85
2022/03/01 02:35:48;;;;;;;;;;;;;;;-1.06;100.00;99930.34;1628022;87;24399;-85
2022/03/01 02:38:14;;;;;;;;;;;;;;;-1.27;100.00;99929.89;1631247;87;20438;-85
2022/03/01 02:40:40;;;;;;;;;;;;;;;-1.47;100.00;99925.98;1631010;87;20245;-85
2022/03/01 02:43:07;;;;;;;;;;;;;;;-1.64;100.00;99928.11;1638863;87;22035;-85
2022/03/01 02:45:33;;;;;;;;;;;;;;;-1.79;100.00;99929.75;1643134;87;25982;-85
2022/03/01 02:47:59;;;;;;;;;;;;;;;-1.91;100.00;99932.72;1643231;85;20376;-85
2022/03/01 02:50:25;;;;;;;;;;;;;;;-1.95;100.00;99929.68;1641267;87;20192;-85
2022/03/01 02:52:51;;;;;;;;;;;;;;;-1.78;100.00;99928.05;1629045;87;24725;-84
2022/03/01 02:55:17;;;;;;;;;;;;;;;-1.61;100.00;99921.69;1634260;87;22615;-85
2022/03/01 02:57:43;;;;;;;;;;;;;;;-1.50;100.00;99929.84;1635605;87;26026;-84
2022/03/01 03:00:10;;;;;;;;;;;;;;;-1.38;100.00;99925.17;1638060;87;24383;-86
2022/03/01 03:02:37;;;;;;;;;;;;;;;-1.37;100.00;99926.47;1634021;85;20374;-86
2022/03/01 03:05:04;;;;;;;;;;;;;;;-1.32;100.00;99921.33;1634540;87;24896;-85
2022/03/01 03:07:30;;;;;;;;;;;;;;;-1.45;100.00;99924.72;1636495;87;21947;-85
2022/03/01 03:09:56;;;;;;;;;;;;;;;-1.53;100.00;99928.56;1637466;86;26061;-85
2022/03/01 03:12:22;;;;;;;;;;;;;;;-1.59;100.00;99928.55;1625503;87;24489;-85
2022/03/01 03:14:48;;;;;;;;;;;;;;;-1.60;100.00;99927.25;1633632;87;20491;-85
2022/03/01 03:17:14;;;;;;;;;;;;;;;-1.57;100.00;99925.54;1633788;87;25557;-85
2022/03/01 03:19:40;;;;;;;;;;;;;;;-1.41;100.00;99927.71;1636200;86;20265;-85
2022/03/01 03:22:06;;;;;;;;;;;;;;;-1.29;100.00;99931.17;1635525;85;26009;-85
2022/03/01 03:24:32;;;;;;;;;;;;;;;-1.19;100.00;99933.31;1633041;87;24387;-85
2022/03/01 03:26:58;;;;;;;;;;;;;;;-1.20;100.00;99934.16;1628941;85;20257;-85
2022/03/01 03:29:24;;;;;;;;;;;;;;;-1.18;100.00;99931.61;1650012;85;24625;-85
2022/03/01 03:31:57;;;;;;;;;;;;;;;-1.14;100.00;99932.89;1630129;86;21976;-85
2022/03/01 03:34:20;;;;;;;;;;;;;;;-1.10;100.00;99926.06;1634037;87;26353;-85
2022/03/01 03:36:46;;;;;;;;;;;;;;;-1.06;100.00;99928.62;1627216;87;24357;-85
2022/03/01 03:39:12;;;;;;;;;;;;;;;-1.27;100.00;99926.91;1636324;87;20252;-85
2022/03/01 03:41:39;;;;;;;;;;;;;;;-1.45;100.00;99926.86;1630942;87;24953;-86
2022/03/01 03:44:05;;;;;;;;;;;;;;;-1.61;100.00;99923.83;1636881;87;21967;-85
2022/03/01 03:46:31;;;;;;;;;;;;;;;-1.73;100.00;99918.65;1630307;86;25967;-85
2022/03/01 03:48:57;;;;;;;;;;;;;;;-1.81;100.00;99916.50;1627684;87;24333;-85
2022/03/01 03:51:23;;;;;;;;;;;;;;;-1.93;100.00;99909.61;1630112;87;20546;-85
2022/03/01 03:53:49;;;;;;;;;;;;;;;-2.00;100.00;99898.89;1624885;86;24833;-85
2022/03/01 03:56:15;;;;;;;;;;;;;;;-2.13;100.00;99896.69;1618828;86;21955;-85
2022/03/01 03:58:41;;;;;;;;;;;;;;;-2.30;100.00;99895.78;1616475;88;26045;-85
2022/03/01 04:01:08;;;;;;;;;;;;;;;-2.45;100.00;99888.41;1630854;85;25205;-85
2022/03/01 04:03:35;;;;;;;;;;;;;;;-2.53;100.00;99888.39;1620084;87;20471;-86
2022/03/01 04:06:01;;;;;;;;;;;;;;;-2.56;100.00;99889.63;1617331;88;24924;-85
2022/03/01 04:08:27;;;;;;;;;;;;;;;-2.59;100.00;99889.63;1621936;88;21557;-85
2022/03/01 04:10:54;;;;;;;;;;;;;;;-2.51;100.00;99878.16;1616770;88;26172;-85
2022/03/01 04:13:21;;;;;;;;;;;;;;;-2.38;100.00;99875.64;1622587;88;23968;-85
2022/03/01 04:15:47;;;;;;;;;;;;;;;-2.19;100.00;99871.47;1622410;87;20329;-85
2022/03/01 04:18:13;;;;;;;;;;;;;;;-2.04;100.00;99877.08;1621319;87;24763;-85
2022/03/01 04:20:39;;;;;;;;;;;;;;;-1.91;100.00;99876.28;1621258;88;21942;-84
2022/03/01 04:23:06;;;;;;;;;;;;;;;-1.84;100.00;99874.14;1632618;87;26112;-84
2022/03/01 04:25:32;;;;;;;;;;;;;;;-1.74;100.00;99870.74;1612996;87;24403;-85
2022/03/01 04:27:58;;;;;;;;;;;;;;;-1.65;100.00;99866.94;1614052;88;20225;-85
2022/03/01 04:30:24;;;;;;;;;;;;;;;-1.57;100.00;99863.94;1606966;88;24854;-85
2022/03/01 04:32:50;;;;;;;;;;;;;;;-1.63;100.00;99872.05;1609195;88;22034;-85
2022/03/01 04:35:16;;;;;;;;;;;;;;;-1.82;100.00;99863.05;1620155;87;26779;-85
2022/03/01 04:37:43;;;;;;;;;;;;;;;-1.93;100.00;99866.43;1604637;87;24531;-85
2022/03/01 04:40:10;;;;;;;;;;;;;;;-2.01;100.00;99866.81;1606124;87;20615;-85
2022/03/01 04:42:36;;;;;;;;;;;;;;;-2.09;100.00;99871.08;1616826;88;24903;-86
2022/03/01 04:45:03;;;;;;;;;;;;;;;-2.08;100.00;99872.37;1606258;88;22091;-85
2022/03/01 04:47:29;;;;;;;;;;;;;;;-1.92;100.00;99868.15;1613240;88;26005;-84
2022/03/01 04:49:55;;;;;;;;;;;;;;;-1.75;100.00;99867.77;1623983;86;24430;-84
2022/03/01 04:52:21;;;;;;;;;;;;;;;-1.61;100.00;99872.49;1634129;87;20251;-84
2022/03/01 04:54:47;;;;;;;;;;;;;;;-1.56;100.00;99868.65;1628871;87;20769;-84
2022/03/01 04:57:13;;;;;;;;;;;;;;;-1.59;100.00;99873.37;1626525;86;22072;-84
2022/03/01 04:59:41;;;;;;;;;;;;;;;-1.61;100.00;99867.78;1626855;86;26670;-84
2022/03/01 05:02:07;;;;;;;;;;;;;;;-1.69;100.00;99867.33;1637624;86;24450;-85
2022/03/01 05:04:33;;;;;;;;;;;;;;;-1.65;100.00;99866.08;1641738;86;20527;-84
2022/03/01 05:06:59;;;;;;;;;;;;;;;-1.65;100.00;99864.37;1635142;86;24818;-85
2022/03/01 05:09:25;;;;;;;;;;;;;;;-1.69;100.00;99867.76;1644833;86;22021;-85
2022/03/01 05:11:52;;;;;;;;;;;;;;;-1.85;100.00;99863.02;1642104;86;26726;-85
2022/03/01 05:14:18;;;;;;;;;;;;;;;-1.99;100.00;99857.00;1644486;86;24341;-85
2022/03/01 05:16:45;;;;;;;;;;;;;;;-2.13;100.00;99856.94;1645440;85;20473;-85
2022/03/01 05:19:12;;;;;;;;;;;;;;;-2.06;100.00;99859.53;1640631;85;24826;-85
2022/03/01 05:21:38;;;;;;;;;;;;;;;-1.89;100.00;99859.16;1642794;86;22059;-85
2022/03/01 05:24:05;;;;;;;;;;;;;;;-1.78;100.00;99853.63;1635583;86;25949;-85
2022/03/01 05:26:31;;;;;;;;;;;;;;;-1.74;100.00;99856.63;1642761;86;24421;-85
2022/03/01 05:28:57;;;;;;;;;;;;;;;-1.76;100.00;99857.08;1624500;85;20321;-85
2022/03/01 05:31:23;;;;;;;;;;;;;;;-1.66;100.00;99856.23;1595347;88;24823;-85
2022/03/01 05:33:50;;;;;;;;;;;;;;;-1.60;100.00;99858.81;1613119;87;22119;-85
2022/03/01 05:36:16;;;;;;;;;;;;;;;-1.77;100.00;99857.50;1595974;87;26074;-85
2022/03/01 05:38:43;;;;;;;;;;;;;;;-1.86;100.00;99855.34;1617132;87;24446;-86
2022/03/01 05:41:11;;;;;;;;;;;;;;;-1.89;100.00;99851.47;1609229;87;20315;-85
2022/03/01 05:43:38;;;;;;;;;;;;;;;-1.91;100.00;99854.02;1611945;87;24593;-85
2022/03/01 05:46:05;;;;;;;;;;;;;;;-2.06;100.00;99852.70;1607767;87;22047;-85
2022/03/01 05:48:31;;;;;;;;;;;;;;;-2.20;100.00;99853.09;1626207;87;26042;-85
2022/03/01 05:50:57;;;;;;;;;;;;;;;-2.29;100.00;99850.05;1606456;87;24485;-86
2022/03/01 05:53:24;;;;;;;;;;;;;;;-2.33;100.00;99850.02;1601761;87;20226;-85
2022/03/01 05:55:51;;;;;;;;;;;;;;;-2.35;100.00;99845.34;1608548;87;24952;-85
2022/03/01 05:58:17;;;;;;;;;;;;;;;-2.31;100.00;99849.20;1601943;87;20253;-86
2022/03/01 06:00:43;;;;;;;;;;;;;;;-2.21;100.00;99852.23;1620792;87;26866;-84
2022/03/01 06:03:09;;;;;;;;;;;;;;;-2.07;100.00;99859.95;1605400;86;24427;-84
2022/03/01 06:05:37;;;;;;;;;;;;;;;-2.07;100.00;99857.39;1575036;88;20200;-86
2022/03/01 06:08:03;;;;;;;;;;;;;;;-2.07;100.00;99852.72;1591465;87;20737;-86
2022/03/01 06:10:29;;;;;;;;;;;;;;;-2.05;100.00;99863.81;1609986;86;21910;-86
2022/03/01 06:12:57;;;;;;;;;;;;;;;-1.95;100.00;99858.72;1605175;88;26051;-84
2022/03/01 06:15:24;;;;;;;;;;;;;;;-1.88;100.00;99860.88;1600364;88;24621;-85
2022/03/01 06:17:50;;;;;;;;;;;;;;;-1.88;100.00;99861.74;1601215;88;20272;-85
2022/03/01 06:20:17;;;;;;;;;;;;;;;-1.89;100.00;99864.30;1579465;90;24813;-85
2022/03/01 06:22:44;;;;;;;;;;;;;;;-1.77;100.00;99870.75;1590026;89;21903;-85
2022/03/01 06:25:10;;;;;;;;;;;;;;;-1.73;100.00;99864.77;1614125;88;26108;-85
2022/03/01 06:27:38;;;;;;;;;;;;;;;-1.74;100.00;99874.59;1594486;88;24409;-85
2022/03/01 06:30:05;;;;;;;;;;;;;;;-1.81;100.00;99869.90;1608625;87;20231;-85
2022/03/01 06:32:31;;;;;;;;;;;;;;;-1.85;100.00;99870.72;1597903;88;24748;-85
2022/03/01 06:35:05;;;;;;;;;;;;;;;-1.89;100.00;99870.28;1589409;88;22719;-85
2022/03/01 06:37:31;;;;;;;;;;;;;;;-1.89;100.00;99875.41;1598076;87;26142;-86
2022/03/01 06:39:57;;;;;;;;;;;;;;;-1.88;100.00;99874.99;1594733;88;24393;-85
2022/03/01 06:42:24;;;;;;;;;;;;;;;-1.84;100.00;99874.14;1597268;88;20448;-85
2022/03/01 06:44:56;;;;;;;;;;;;;;;-1.76;100.00;99868.20;1593654;88;24780;-85
2022/03/01 06:47:20;;;;;;;;;;;;;;;-1.67;100.00;99876.33;1611320;86;22661;-85
2022/03/01 06:49:47;;;;;;;;;;;;;;;-1.55;100.00;99873.80;1606918;86;26148;-85
2022/03/01 06:52:13;;;;;;;;;;;;;;;-1.53;100.00;99874.66;1582390;90;24520;-85
2022/03/01 06:54:40;;;;;;;;;;;;;;;-1.57;100.00;99869.49;1599369;88;20225;-84
2022/03/01 06:57:06;;;;;;;;;;;;;;;-1.65;100.00;99867.36;1628339;86;25452;-85
2022/03/01 06:59:32;;;;;;;;;;;;;;;-1.75;100.00;99871.63;1626294;86;21977;-85
2022/03/01 07:01:58;;;;;;;;;;;;;;;-1.83;100.00;99868.16;1614552;86;26053;-85
2022/03/01 07:04:30;;;;;;;;;;;;;;;-1.85;100.00;99873.28;1614092;87;20366;-85
2022/03/01 07:06:56;;;;;;;;;;;;;;;-1.85;100.00;99869.86;1638037;87;20278;-85
2022/03/01 07:09:22;;;;;;;;;;;;;;;-1.89;100.00;99874.56;1629592;87;24697;-86
2022/03/01 07:11:49;;;;;;;;;;;;;;;-1.91;100.00;99872.44;1616618;87;22732;-86
2022/03/01 07:14:15;;;;;;;;;;;;;;;-1.89;100.00;99869.42;1631365;86;26681;-86
2022/03/01 07:16:41;;;;;;;;;;;;;;;-1.86;100.00;99872.02;1626704;86;24511;-86
2022/03/01 07:19:07;;;;;;;;;;;;;;;-1.82;100.00;99873.73;1624661;87;20345;-85
2022/03/01 07:21:33;;;;;;;;;;;;;;;-1.83;100.00;99871.59;1627704;87;24824;-85
2022/03/01 07:24:00;;;;;;;;;;;;;;;-1.76;100.00;99869.91;1615980;87;22014;-85
2022/03/01 07:26:25;;;;;;;;;;;;;;;-1.73;100.00;99872.46;1619153;87;26051;-85
2022/03/01 07:28:53;;;;;;;;;;;;;;;-1.74;100.00;99874.17;1632450;87;24385;-85
2022/03/01 07:31:19;;;;;;;;;;;;;;;-1.72;100.00;99878.03;1617076;87;20239;-85
2022/03/01 07:33:45;;;;;;;;;;;;;;;-1.68;100.00;99882.30;1655176;85;24767;-85
2022/03/01 07:36:11;;;;;;;;;;;;;;;-1.65;100.00;99877.63;1611142;86;22061;-85
2022/03/01 07:38:37;;;;;;;;;;;;;;;-1.61;100.00;99876.77;1622845;85;21231;-85
2022/03/01 07:41:03;;;;;;;;;;;;;;;-1.61;100.00;99877.63;1630469;85;20283;-85
2022/03/01 07:43:29;;;;;;;;;;;;;;;-1.57;100.00;99875.48;1642130;85;20310;-85
2022/03/01 07:45:55;;;;;;;;;;;;;;;-1.54;100.00;99876.80;1637765;86;24764;-85
2022/03/01 07:48:21;;;;;;;;;;;;;;;-1.48;100.00;99878.52;1635483;86;22052;-85
2022/03/01 07:50:47;;;;;;;;;;;;;;;-1.43;100.00;99878.09;1654691;85;26014;-85
2022/03/01 07:53:13;;;;;;;;;;;;;;;-1.40;100.00;99879.37;1621921;86;24697;-84
2022/03/01 07:55:39;;;;;;;;;;;;;;;-1.40;100.00;99874.23;1596671;88;20321;-84
2022/03/01 07:58:05;;;;;;;;;;;;;;;-1.36;100.00;99871.66;1608914;87;20287;-85
2022/03/01 08:00:32;;;;;;;;;;;;;;;-1.30;100.00;99869.53;1631396;86;22043;-86
2022/03/01 08:02:58;;;;;;;;;;;;;;;-1.28;100.00;99871.25;1609948;87;26147;-84
2022/03/01 08:05:24;;;;;;;;;;;;;;;-1.23;100.00;99866.55;1600290;88;24485;-84
2022/03/01 08:07:50;;;;;;;;;;;;;;;-1.18;100.00;99872.11;1595100;88;20267;-86
2022/03/01 08:10:16;;;;;;;;;;;;;;;-1.10;100.00;99874.69;1627489;86;24966;-84
2022/03/01 08:12:42;;;;;;;;;;;;;;;-1.06;100.00;99873.40;1645360;85;22050;-85
2022/03/01 08:15:09;;;;;;;;;;;;;;;-0.99;100.00;99872.55;1643104;85;26703;-86
2022/03/01 08:17:52;;;;;;;;;;;;;;;-0.94;100.00;99871.26;1653164;85;25128;-84
2022/03/01 08:20:20;;;;;;;;;;;;;;;-0.93;100.00;99875.55;1660138;85;20273;-85
2022/03/01 08:22:46;;;;;;;;;;;;;;;-0.89;100.00;99868.25;1648416;84;26098;-85
2022/03/01 08:25:12;;;;;;;;;;;;;;;-0.79;100.00;99871.66;1651315;85;22164;-85
2022/03/01 08:27:38;;;;;;;;;;;;;;;-0.72;100.00;99876.80;1638006;85;26064;-85
2022/03/01 08:30:11;;;;;;;;;;;;;;;-0.68;100.00;99864.79;1641093;85;24456;-85
2022/03/01 08:32:38;;;;;;;;;;;;;;;-0.61;100.00;99860.07;1636942;85;20192;-85
2022/03/01 08:35:04;;;;;;;;;;;;;;;-0.51;100.00;99866.47;1646882;85;24737;-85
2022/03/01 08:37:30;;;;;;;;;;;;;;;-0.45;100.00;99860.03;1660707;85;22066;-85
2022/03/01 08:39:57;;;;;;;;;;;;;;;-0.43;100.00;99864.72;1643197;85;26215;-84
2022/03/01 08:42:23;;;;;;;;;;;;;;;-0.40;100.00;99862.58;1637638;87;24513;-85
2022/03/01 08:44:49;;;;;;;;;;;;;;;-0.33;100.00;99860.86;1636783;85;20281;-85
2022/03/01 08:47:15;;;;;;;;;;;;;;;-0.29;100.00;99855.69;1641061;85;24766;-85
2022/03/01 08:49:41;;;;;;;;;;;;;;;-0.24;100.00;99855.67;1638227;85;21948;-86
2022/03/01 08:52:07;;;;;;;;;;;;;;;-0.20;100.00;99856.93;1640829;85;26267;-85
2022/03/01 08:54:33;;;;;;;;;;;;;;;-0.17;100.00;99847.08;1648268;85;20292;-85
2022/03/01 08:56:59;;;;;;;;;;;;;;;-0.10;100.00;99853.45;1628286;86;20367;-85
2022/03/01 08:59:25;;;;;;;;;;;;;;;-0.05;100.00;99852.14;1627135;87;20317;-85
2022/03/01 09:01:53;;;;;;;;;;;;;;;0.00;100.00;99846.11;1635076;85;22062;-86
2022/03/01 09:04:19;;;;;;;;;;;;;;;0.03;100.00;99839.25;1635551;85;26079;-85
2022/03/01 09:06:45;;;;;;;;;;;;;;;0.09;100.00;99840.52;1635648;85;24482;-85
2022/03/01 09:09:11;;;;;;;;;;;;;;;0.16;100.00;99835.34;1639834;85;20243;-85
2022/03/01 09:11:37;;;;;;;;;;;;;;;0.26;100.00;99832.27;1636728;85;24733;-84
2022/03/01 09:14:03;;;;;;;;;;;;;;;0.36;100.00;99829.62;1635232;85;21972;-84
2022/03/01 09:16:29;;;;;;;;;;;;;;;0.44;100.00;99823.11;1647253;85;26016;-84
2022/03/01 09:18:55;;;;;;;;;;;;;;;0.52;100.00;99823.07;1636766;85;24510;-85
2022/03/01 09:21:21;;;;;;;;;;;;;;;0.56;100.00;99820.45;1634756;85;20529;-83
2022/03/01 09:23:47;;;;;;;;;;;;;;;0.62;100.00;99819.55;1641011;85;24737;-83
2022/03/01 09:26:15;;;;;;;;;;;;;;;0.67;100.00;99807.49;1638179;85;22025;-83
2022/03/01 09:28:41;;;;;;;;;;;;;;;0.76;100.00;99806.97;1623827;86;26049;-81
2022/03/01 09:31:10;;;;;;;;;;;;;;;0.83;100.00;99809.07;1640157;85;24441;-81
2022/03/01 09:33:42;;;;;;;;;;;;;;;0.87;100.00;99801.76;1640702;85;20189;-83
2022/03/01 09:36:04;;;;;;;;;;;;;;;0.92;100.00;99794.84;1641991;87;24829;-82
2022/03/01 09:38:30;;;;;;;;;;;;;;;0.95;100.00;99787.49;1629256;87;22129;-82
2022/03/01 09:40:56;;;;;;;;;;;;;;;1.02;100.00;99787.43;1637482;87;25945;-82
2022/03/01 09:43:23;;;;;;;;;;;;;;;1.05;100.00;99778.80;1634700;87;24462;-82
2022/03/01 09:45:49;;;;;;;;;;;;;;;1.12;100.00;99783.03;1622121;86;20594;-84
2022/03/01 09:48:16;;;;;;;;;;;;;;;1.20;100.00;99782.06;1630320;86;24828;-84
2022/03/01 09:50:42;;;;;;;;;;;;;;;1.23;100.00;99772.17;1624645;86;22013;-84
2022/03/01 09:53:08;;;;;;;;;;;;;;;1.24;100.00;99779.05;1633500;87;26024;-85
2022/03/01 09:55:34;;;;;;;;;;;;;;;1.22;100.00;99775.18;1630704;87;24614;-82
2022/03/01 09:58:00;;;;;;;;;;;;;;;1.21;100.00;99768.31;1630744;86;20259;-85
2022/03/01 10:00:26;;;;;;;;;;;;;;;1.22;100.00;99771.31;1627479;87;25762;-82
2022/03/01 10:02:54;;;;;;;;;;;;;;;1.25;100.00;99769.16;1636079;87;21962;-85
2022/03/01 10:05:22;;;;;;;;;;;;;;;1.34;100.00;99771.62;1628783;87;26212;-82
2022/03/01 10:07:48;;;;;;;;;;;;;;;1.42;100.00;99768.50;1627679;87;24471;-86
2022/03/01 10:10:16;;;;;;;;;;;;;;;1.47;100.00;99768.47;1612179;87;20640;-86
2022/03/01 10:12:53;;;;;;;;;;;;;;;1.50;100.00;99760.68;1628982;87;26225;-86
2022/03/01 10:15:20;;;;;;;;;;;;;;;1.57;100.00;99761.89;1623131;87;21934;-86
2022/03/01 10:17:46;;;;;;;;;;;;;;;1.60;100.00;99760.55;1632461;86;26104;-83
2022/03/01 10:20:14;;;;;;;;;;;;;;;1.61;100.00;99763.98;1640053;87;20318;-85
2022/03/01 10:22:46;;;;;;;;;;;;;;;1.64;100.00;99761.34;1628472;86;20238;-85
2022/03/01 10:25:14;;;;;;;;;;;;;;;1.65;100.00;99765.64;1632574;86;24881;-85
2022/03/01 10:27:40;;;;;;;;;;;;;;;1.66;100.00;99756.60;1629694;86;22939;-85
2022/03/01 10:30:07;;;;;;;;;;;;;;;1.69;100.00;99754.44;1632935;86;26000;-86
2022/03/01 10:32:34;;;;;;;;;;;;;;;1.70;100.00;99749.66;1632597;86;24496;-86
2022/03/01 10:35:01;;;;;;;;;;;;;;;1.74;99.91;99755.22;1633604;85;20239;-86
2022/03/01 10:37:29;;;;;;;;;;;;;;;1.80;99.27;99746.08;1635755;87;25736;-86
2022/03/01 10:40:15;;;;;;;;;;;;;;;1.84;98.59;99746.48;1631503;87;21983;-83
2022/03/01 10:42:42;;;;;;;;;;;;;;;1.93;98.07;99741.17;1631272;87;26968;-85
2022/03/01 10:45:10;;;;;;;;;;;;;;;1.93;97.36;99736.45;1628469;86;24690;-84
2022/03/01 10:47:37;;;;;;;;;;;;;;;1.93;96.71;99741.61;1633254;85;20465;-85
2022/03/01 10:50:05;;;;;;;;;;;;;;;1.91;96.05;99731.30;1629692;85;24872;-82
2022/03/01 10:52:33;;;;;;;;;;;;;;;1.91;95.38;99728.72;1627971;86;21973;-82
2022/03/01 10:54:59;;;;;;;;;;;;;;;1.91;94.61;99732.59;1624585;87;26086;-82
2022/03/01 10:57:26;;;;;;;;;;;;;;;1.90;93.82;99728.77;1627514;86;24535;-82
2022/03/01 10:59:52;;;;;;;;;;;;;;;1.95;93.30;99723.09;1635090;87;20234;-83
2022/03/01 11:02:19;;;;;;;;;;;;;;;2.05;92.98;99721.64;1636722;86;24876;-85
2022/03/01 11:04:45;;;;;;;;;;;;;;;2.12;92.49;99724.14;1637178;86;22054;-83
2022/03/01 11:07:12;;;;;;;;;;;;;;;2.13;91.85;99724.56;1647043;85;26685;-84
2022/03/01 11:09:39;;;;;;;;;;;;;;;2.14;91.15;99723.66;1644186;85;24528;-84
2022/03/01 11:12:06;;;;;;;;;;;;;;;2.16;90.47;99722.77;1645918;85;20349;-84
2022/03/01 11:14:51;;;;;;;;;;;;;;;2.20;89.98;99720.98;1639259;85;24732;-85
2022/03/01 11:17:22;;;;;;;;;;;;;;;2.28;89.62;99715.27;1624135;87;22053;-85
2022/03/01 11:19:56;;;;;;;;;;;;;;;2.26;88.96;99715.29;1646638;85;25960;-85
2022/03/01 11:22:26;;;;;;;;;;;;;;;2.28;88.23;99710.11;1627219;86;24421;-85
2022/03/01 11:24:54;;;;;;;;;;;;;;;2.23;87.44;99703.73;1657600;86;20219;-85
2022/03/01 11:27:21;;;;;;;;;;;;;;;2.22;86.64;99706.33;1640500;86;24814;-85
2022/03/01 11:29:49;;;;;;;;;;;;;;;2.21;85.91;99704.62;1635481;86;22622;-85
2022/03/01 11:32:17;;;;;;;;;;;;;;;2.24;85.34;99701.97;1628772;86;26058;-85
2022/03/01 11:34:44;;;;;;;;;;;;;;;2.27;84.82;99691.61;1629758;86;24444;-82
2022/03/01 11:37:17;;;;;;;;;;;;;;;2.33;84.32;99694.95;1633893;86;20618;-82
2022/03/01 11:40:02;;;;;;;;;;;;;;;2.33;83.75;99690.22;1645937;85;24827;-81
2022/03/01 11:42:34;;;;;;;;;;;;;;;2.37;83.14;99684.97;1642427;85;22073;-84
2022/03/01 11:45:02;;;;;;;;;;;;;;;2.43;82.63;99679.70;1642396;86;26212;-84
2022/03/01 11:47:29;;;;;;;;;;;;;;;2.48;82.18;99677.89;1639123;86;24144;-82
2022/03/01 11:49:56;;;;;;;;;;;;;;;2.50;81.55;99676.58;1634779;86;20236;-83
2022/03/01 11:52:26;;;;;;;;;;;;;;;2.48;80.79;99670.14;1630786;86;24822;-84
2022/03/01 11:54:56;;;;;;;;;;;;;;;2.44;79.92;99666.35;1645830;85;21948;-82
2022/03/01 11:57:26;;;;;;;;;;;;;;;2.44;79.05;99660.75;1651448;85;25998;-83
2022/03/01 11:59:56;;;;;;;;;;;;;;;2.44;78.36;99650.86;1625212;85;24436;-82
2022/03/01 12:02:24;;;;;;;;;;;;;;;2.47;77.63;99648.20;1644097;85;20655;-83
2022/03/01 12:04:52;;;;;;;;;;;;;;;2.49;76.93;99640.84;1629676;85;24921;-83
2022/03/01 12:07:20;;;;;;;;;;;;;;;2.52;76.30;99639.92;1632286;85;21942;-82
2022/03/01 12:09:55;;;;;;;;;;;;;;;2.57;75.90;99635.52;1639189;85;26096;-85
2022/03/01 12:12:23;;;;;;;;;;;;;;;2.64;75.46;99628.08;1653148;85;24542;-84
2022/03/01 12:14:56;;;;;;;;;;;;;;;2.70;74.88;99631.84;1630136;85;20340;-84
2022/03/01 12:17:25;;;;;;;;;;;;;;;2.73;74.36;99627.89;1636103;85;24829;-84
2022/03/01 12:20:00;;;;;;;;;;;;;;;2.78;73.97;99615.73;1650052;84;22568;-84
2022/03/01 12:22:26;;;;;;;;;;;;;;;2.84;73.64;99617.34;1629055;85;26044;-84
2022/03/01 12:24:54;;;;;;;;;;;;;;;2.84;73.00;99614.32;1639072;85;24424;-84
2022/03/01 12:27:21;;;;;;;;;;;;;;;2.88;72.54;99612.11;1638815;85;20270;-84
2022/03/01 12:29:49;;;;;;;;;;;;;;;2.98;72.37;99606.30;1625551;85;25127;-84
2022/03/01 12:32:17;;;;;;;;;;;;;;;3.04;72.11;99610.50;1640308;84;22008;-84
2022/03/01 12:34:44;;;;;;;;;;;;;;;3.04;71.75;99606.18;1634620;85;26184;-84
2022/03/01 12:37:14;;;;;;;;;;;;;;;3.09;71.37;99608.22;1642696;85;24425;-85
2022/03/01 12:39:39;;;;;;;;;;;;;;;3.12;71.01;99607.30;1635237;85;20479;-82
2022/03/01 12:42:06;;;;;;;;;;;;;;;3.07;70.40;99603.52;1634267;84;24765;-82